sensor_id;sensor_type;location;lat;lon;timestamp;P1;durP1;ratioP1;P2;durP2;ratioP2
72601;SDS011;60644;55.858;37.390;2023-07-13T00:02:07;5.97;;;1.33;;
72601;SDS011;60644;55.858;37.390;2023-07-13T00:04:33;3.53;;;0.90;;
72601;SDS011;60644;55.858;37.390;2023-07-13T00:07:01;4.87;;;1.20;;
72601;SDS011;60644;55.858;37.390;2023-07-13T00:09:28;5.13;;;0.98;;
72601;SDS011;60644;55.858;37.390;2023-07-13T00:11:54;4.37;;;1.30;;
72601;SDS011;60644;55.858;37.390;2023-07-13T00:14:20;5.00;;;1.17;;
72601;SDS011;60644;55.858;37.390;2023-07-13T00:16:46;6.25;;;1.00;;
72601;SDS011;60644;55.858;37.390;2023-07-13T00:19:12;4.63;;;1.10;;
72601;SDS011;60644;55.858;37.390;2023-07-13T00:21:38;4.93;;;1.20;;
72601;SDS011;60644;55.858;37.390;2023-07-13T00:24:05;3.80;;;1.10;;
72601;SDS011;60644;55.858;37.390;2023-07-13T00:26:31;4.50;;;1.42;;
72601;SDS011;60644;55.858;37.390;2023-07-13T00:28:58;3.40;;;0.93;;
72601;SDS011;60644;55.858;37.390;2023-07-13T00:31:23;5.72;;;1.20;;
72601;SDS011;60644;55.858;37.390;2023-07-13T00:33:49;8.50;;;1.27;;
72601;SDS011;60644;55.858;37.390;2023-07-13T00:36:14;5.75;;;1.40;;
72601;SDS011;60644;55.858;37.390;2023-07-13T00:38:41;6.78;;;1.50;;
72601;SDS011;60644;55.858;37.390;2023-07-13T00:41:07;4.77;;;1.20;;
72601;SDS011;60644;55.858;37.390;2023-07-13T00:43:32;4.45;;;1.13;;
72601;SDS011;60644;55.858;37.390;2023-07-13T00:48:25;6.68;;;1.70;;
72601;SDS011;60644;55.858;37.390;2023-07-13T00:50:53;5.93;;;1.27;;
72601;SDS011;60644;55.858;37.390;2023-07-13T00:53:20;4.95;;;1.20;;
72601;SDS011;60644;55.858;37.390;2023-07-13T00:55:46;4.07;;;1.10;;
72601;SDS011;60644;55.858;37.390;2023-07-13T00:58:15;4.78;;;1.40;;
72601;SDS011;60644;55.858;37.390;2023-07-13T01:00:41;5.60;;;1.37;;
72601;SDS011;60644;55.858;37.390;2023-07-13T01:03:06;5.32;;;1.40;;
72601;SDS011;60644;55.858;37.390;2023-07-13T01:05:35;5.33;;;1.37;;
72601;SDS011;60644;55.858;37.390;2023-07-13T01:08:04;5.38;;;1.27;;
72601;SDS011;60644;55.858;37.390;2023-07-13T01:10:39;4.28;;;1.13;;
72601;SDS011;60644;55.858;37.390;2023-07-13T01:13:09;5.80;;;1.33;;
72601;SDS011;60644;55.858;37.390;2023-07-13T01:15:36;4.47;;;1.30;;
72601;SDS011;60644;55.858;37.390;2023-07-13T01:18:07;5.43;;;1.30;;
72601;SDS011;60644;55.858;37.390;2023-07-13T01:20:33;4.38;;;1.50;;
72601;SDS011;60644;55.858;37.390;2023-07-13T01:23:05;4.32;;;1.38;;
72601;SDS011;60644;55.858;37.390;2023-07-13T01:25:34;6.07;;;1.50;;
72601;SDS011;60644;55.858;37.390;2023-07-13T01:28:00;5.28;;;1.20;;
72601;SDS011;60644;55.858;37.390;2023-07-13T01:30:26;5.72;;;1.42;;
72601;SDS011;60644;55.858;37.390;2023-07-13T01:32:51;4.50;;;1.30;;
72601;SDS011;60644;55.858;37.390;2023-07-13T01:35:17;5.25;;;1.70;;
72601;SDS011;60644;55.858;37.390;2023-07-13T01:37:46;5.25;;;1.73;;
72601;SDS011;60644;55.858;37.390;2023-07-13T01:40:14;4.63;;;1.30;;
72601;SDS011;60644;55.858;37.390;2023-07-13T01:42:39;5.32;;;1.50;;
72601;SDS011;60644;55.858;37.390;2023-07-13T01:45:05;4.33;;;1.43;;
72601;SDS011;60644;55.858;37.390;2023-07-13T01:47:31;4.32;;;1.15;;
72601;SDS011;60644;55.858;37.390;2023-07-13T01:49:57;5.93;;;1.40;;
72601;SDS011;60644;55.858;37.390;2023-07-13T01:52:25;4.93;;;1.30;;
72601;SDS011;60644;55.858;37.390;2023-07-13T01:54:52;6.28;;;1.42;;
72601;SDS011;60644;55.858;37.390;2023-07-13T01:57:17;4.53;;;1.20;;
72601;SDS011;60644;55.858;37.390;2023-07-13T01:59:43;3.80;;;1.10;;
72601;SDS011;60644;55.858;37.390;2023-07-13T02:02:09;4.60;;;1.50;;
72601;SDS011;60644;55.858;37.390;2023-07-13T02:04:36;4.70;;;1.20;;
72601;SDS011;60644;55.858;37.390;2023-07-13T02:07:01;4.50;;;1.23;;
72601;SDS011;60644;55.858;37.390;2023-07-13T02:09:28;4.82;;;1.10;;
72601;SDS011;60644;55.858;37.390;2023-07-13T02:11:53;5.97;;;1.50;;
72601;SDS011;60644;55.858;37.390;2023-07-13T02:14:19;4.90;;;2.13;;
72601;SDS011;60644;55.858;37.390;2023-07-13T02:16:45;6.63;;;1.33;;
72601;SDS011;60644;55.858;37.390;2023-07-13T02:19:10;4.30;;;1.30;;
72601;SDS011;60644;55.858;37.390;2023-07-13T02:21:36;5.57;;;1.40;;
72601;SDS011;60644;55.858;37.390;2023-07-13T02:24:02;4.90;;;1.25;;
72601;SDS011;60644;55.858;37.390;2023-07-13T02:26:28;5.85;;;1.40;;
72601;SDS011;60644;55.858;37.390;2023-07-13T02:28:54;5.97;;;1.55;;
72601;SDS011;60644;55.858;37.390;2023-07-13T02:31:20;5.77;;;1.27;;
72601;SDS011;60644;55.858;37.390;2023-07-13T02:33:45;3.50;;;1.27;;
72601;SDS011;60644;55.858;37.390;2023-07-13T02:36:11;3.67;;;1.30;;
72601;SDS011;60644;55.858;37.390;2023-07-13T02:38:37;4.68;;;1.30;;
72601;SDS011;60644;55.858;37.390;2023-07-13T02:41:03;6.27;;;1.97;;
72601;SDS011;60644;55.858;37.390;2023-07-13T02:43:29;5.32;;;1.48;;
72601;SDS011;60644;55.858;37.390;2023-07-13T02:45:55;4.35;;;1.48;;
72601;SDS011;60644;55.858;37.390;2023-07-13T02:48:21;5.80;;;1.40;;
72601;SDS011;60644;55.858;37.390;2023-07-13T02:50:50;5.28;;;1.40;;
72601;SDS011;60644;55.858;37.390;2023-07-13T02:53:16;6.38;;;1.50;;
72601;SDS011;60644;55.858;37.390;2023-07-13T02:55:41;4.17;;;1.30;;
72601;SDS011;60644;55.858;37.390;2023-07-13T02:58:13;4.30;;;1.42;;
72601;SDS011;60644;55.858;37.390;2023-07-13T03:00:42;5.15;;;1.70;;
72601;SDS011;60644;55.858;37.390;2023-07-13T03:03:08;5.80;;;1.63;;
72601;SDS011;60644;55.858;37.390;2023-07-13T03:05:34;4.20;;;1.30;;
72601;SDS011;60644;55.858;37.390;2023-07-13T03:07:59;5.43;;;1.45;;
72601;SDS011;60644;55.858;37.390;2023-07-13T03:10:26;5.00;;;1.40;;
72601;SDS011;60644;55.858;37.390;2023-07-13T03:12:52;5.57;;;1.60;;
72601;SDS011;60644;55.858;37.390;2023-07-13T03:15:24;4.80;;;1.52;;
72601;SDS011;60644;55.858;37.390;2023-07-13T03:17:52;5.65;;;1.40;;
72601;SDS011;60644;55.858;37.390;2023-07-13T03:20:18;6.10;;;1.30;;
72601;SDS011;60644;55.858;37.390;2023-07-13T03:22:44;4.63;;;1.38;;
72601;SDS011;60644;55.858;37.390;2023-07-13T03:25:10;4.20;;;1.48;;
72601;SDS011;60644;55.858;37.390;2023-07-13T03:27:36;4.60;;;1.30;;
72601;SDS011;60644;55.858;37.390;2023-07-13T03:30:03;4.10;;;1.37;;
72601;SDS011;60644;55.858;37.390;2023-07-13T03:32:29;5.50;;;1.65;;
72601;SDS011;60644;55.858;37.390;2023-07-13T03:34:55;4.57;;;1.37;;
72601;SDS011;60644;55.858;37.390;2023-07-13T03:37:21;4.22;;;1.52;;
72601;SDS011;60644;55.858;37.390;2023-07-13T03:39:47;7.43;;;1.67;;
72601;SDS011;60644;55.858;37.390;2023-07-13T03:42:13;5.03;;;1.52;;
72601;SDS011;60644;55.858;37.390;2023-07-13T03:44:39;6.47;;;1.50;;
72601;SDS011;60644;55.858;37.390;2023-07-13T03:47:05;5.70;;;1.40;;
72601;SDS011;60644;55.858;37.390;2023-07-13T03:49:31;5.15;;;1.30;;
72601;SDS011;60644;55.858;37.390;2023-07-13T03:51:58;5.47;;;1.20;;
72601;SDS011;60644;55.858;37.390;2023-07-13T03:54:24;4.57;;;1.33;;
72601;SDS011;60644;55.858;37.390;2023-07-13T03:56:50;5.05;;;1.38;;
72601;SDS011;60644;55.858;37.390;2023-07-13T03:59:18;5.13;;;1.07;;
72601;SDS011;60644;55.858;37.390;2023-07-13T04:01:45;4.22;;;1.20;;
72601;SDS011;60644;55.858;37.390;2023-07-13T04:04:14;7.60;;;1.50;;
72601;SDS011;60644;55.858;37.390;2023-07-13T04:06:41;4.20;;;1.20;;
72601;SDS011;60644;55.858;37.390;2023-07-13T04:09:06;5.80;;;1.43;;
72601;SDS011;60644;55.858;37.390;2023-07-13T04:11:35;4.82;;;1.30;;
72601;SDS011;60644;55.858;37.390;2023-07-13T04:14:05;4.32;;;1.70;;
72601;SDS011;60644;55.858;37.390;2023-07-13T04:16:33;4.93;;;1.13;;
72601;SDS011;60644;55.858;37.390;2023-07-13T04:19:07;5.30;;;1.73;;
72601;SDS011;60644;55.858;37.390;2023-07-13T04:21:33;4.23;;;1.20;;
72601;SDS011;60644;55.858;37.390;2023-07-13T04:24:03;5.60;;;1.20;;
72601;SDS011;60644;55.858;37.390;2023-07-13T04:26:29;5.05;;;1.70;;
72601;SDS011;60644;55.858;37.390;2023-07-13T04:28:55;6.32;;;2.53;;
72601;SDS011;60644;55.858;37.390;2023-07-13T04:31:21;5.10;;;1.60;;
72601;SDS011;60644;55.858;37.390;2023-07-13T04:33:47;5.60;;;1.20;;
72601;SDS011;60644;55.858;37.390;2023-07-13T04:36:14;5.72;;;1.30;;
72601;SDS011;60644;55.858;37.390;2023-07-13T04:38:40;5.77;;;1.37;;
72601;SDS011;60644;55.858;37.390;2023-07-13T04:41:08;5.20;;;1.52;;
72601;SDS011;60644;55.858;37.390;2023-07-13T04:43:34;4.53;;;1.30;;
72601;SDS011;60644;55.858;37.390;2023-07-13T04:46:07;4.53;;;1.40;;
72601;SDS011;60644;55.858;37.390;2023-07-13T04:48:34;4.18;;;1.25;;
72601;SDS011;60644;55.858;37.390;2023-07-13T04:50:59;4.82;;;1.50;;
72601;SDS011;60644;55.858;37.390;2023-07-13T04:53:25;4.13;;;1.30;;
72601;SDS011;60644;55.858;37.390;2023-07-13T04:55:51;5.38;;;1.65;;
72601;SDS011;60644;55.858;37.390;2023-07-13T04:58:17;6.32;;;1.33;;
72601;SDS011;60644;55.858;37.390;2023-07-13T05:00:43;4.43;;;1.40;;
72601;SDS011;60644;55.858;37.390;2023-07-13T05:03:08;5.30;;;1.10;;
72601;SDS011;60644;55.858;37.390;2023-07-13T05:05:34;4.50;;;1.20;;
72601;SDS011;60644;55.858;37.390;2023-07-13T05:08:00;4.40;;;1.20;;
72601;SDS011;60644;55.858;37.390;2023-07-13T05:10:25;4.88;;;1.38;;
72601;SDS011;60644;55.858;37.390;2023-07-13T05:12:51;3.77;;;1.40;;
72601;SDS011;60644;55.858;37.390;2023-07-13T05:15:18;4.15;;;1.00;;
72601;SDS011;60644;55.858;37.390;2023-07-13T05:17:47;5.03;;;1.30;;
72601;SDS011;60644;55.858;37.390;2023-07-13T05:20:12;6.00;;;1.42;;
72601;SDS011;60644;55.858;37.390;2023-07-13T05:22:38;5.37;;;1.13;;
72601;SDS011;60644;55.858;37.390;2023-07-13T05:25:04;3.57;;;1.10;;
72601;SDS011;60644;55.858;37.390;2023-07-13T05:27:30;3.72;;;1.08;;
72601;SDS011;60644;55.858;37.390;2023-07-13T05:29:56;4.38;;;1.20;;
72601;SDS011;60644;55.858;37.390;2023-07-13T05:32:21;5.13;;;1.47;;
72601;SDS011;60644;55.858;37.390;2023-07-13T05:34:47;6.27;;;1.47;;
72601;SDS011;60644;55.858;37.390;2023-07-13T05:37:13;4.75;;;1.40;;
72601;SDS011;60644;55.858;37.390;2023-07-13T05:39:38;7.10;;;2.10;;
72601;SDS011;60644;55.858;37.390;2023-07-13T05:42:04;5.53;;;1.55;;
72601;SDS011;60644;55.858;37.390;2023-07-13T05:44:30;4.90;;;1.40;;
72601;SDS011;60644;55.858;37.390;2023-07-13T05:46:56;4.17;;;1.10;;
72601;SDS011;60644;55.858;37.390;2023-07-13T05:49:22;5.13;;;1.45;;
72601;SDS011;60644;55.858;37.390;2023-07-13T05:51:59;17.70;;;1.45;;
72601;SDS011;60644;55.858;37.390;2023-07-13T05:54:24;4.03;;;1.10;;
72601;SDS011;60644;55.858;37.390;2023-07-13T05:56:50;3.97;;;0.95;;
72601;SDS011;60644;55.858;37.390;2023-07-13T05:59:17;6.77;;;1.43;;
72601;SDS011;60644;55.858;37.390;2023-07-13T06:01:42;5.05;;;1.30;;
72601;SDS011;60644;55.858;37.390;2023-07-13T06:04:08;4.55;;;1.20;;
72601;SDS011;60644;55.858;37.390;2023-07-13T06:06:34;4.33;;;1.10;;
72601;SDS011;60644;55.858;37.390;2023-07-13T06:08:59;4.30;;;1.00;;
72601;SDS011;60644;55.858;37.390;2023-07-13T06:11:25;3.70;;;1.10;;
72601;SDS011;60644;55.858;37.390;2023-07-13T06:13:51;3.92;;;1.10;;
72601;SDS011;60644;55.858;37.390;2023-07-13T06:16:17;5.00;;;0.93;;
72601;SDS011;60644;55.858;37.390;2023-07-13T06:18:43;3.28;;;0.98;;
72601;SDS011;60644;55.858;37.390;2023-07-13T06:21:10;4.80;;;1.10;;
72601;SDS011;60644;55.858;37.390;2023-07-13T06:23:36;4.20;;;1.17;;
72601;SDS011;60644;55.858;37.390;2023-07-13T06:26:02;4.40;;;1.30;;
72601;SDS011;60644;55.858;37.390;2023-07-13T06:28:28;4.47;;;1.10;;
72601;SDS011;60644;55.858;37.390;2023-07-13T06:30:55;3.97;;;1.02;;
72601;SDS011;60644;55.858;37.390;2023-07-13T06:33:21;3.63;;;1.17;;
72601;SDS011;60644;55.858;37.390;2023-07-13T06:35:47;4.45;;;1.00;;
72601;SDS011;60644;55.858;37.390;2023-07-13T06:38:12;4.90;;;1.20;;
72601;SDS011;60644;55.858;37.390;2023-07-13T06:40:38;4.28;;;1.50;;
72601;SDS011;60644;55.858;37.390;2023-07-13T06:43:04;4.97;;;1.20;;
72601;SDS011;60644;55.858;37.390;2023-07-13T06:45:29;3.92;;;0.90;;
72601;SDS011;60644;55.858;37.390;2023-07-13T06:47:58;5.50;;;1.20;;
72601;SDS011;60644;55.858;37.390;2023-07-13T06:50:23;6.07;;;1.45;;
72601;SDS011;60644;55.858;37.390;2023-07-13T06:52:49;4.83;;;1.20;;
72601;SDS011;60644;55.858;37.390;2023-07-13T06:55:15;4.20;;;1.20;;
72601;SDS011;60644;55.858;37.390;2023-07-13T06:57:40;4.53;;;1.23;;
72601;SDS011;60644;55.858;37.390;2023-07-13T07:00:06;4.22;;;1.20;;
72601;SDS011;60644;55.858;37.390;2023-07-13T07:02:32;3.73;;;0.93;;
72601;SDS011;60644;55.858;37.390;2023-07-13T07:04:58;4.03;;;1.17;;
72601;SDS011;60644;55.858;37.390;2023-07-13T07:07:24;5.47;;;1.33;;
72601;SDS011;60644;55.858;37.390;2023-07-13T07:09:50;4.55;;;1.33;;
72601;SDS011;60644;55.858;37.390;2023-07-13T07:12:16;4.97;;;1.30;;
72601;SDS011;60644;55.858;37.390;2023-07-13T07:14:41;5.65;;;1.02;;
72601;SDS011;60644;55.858;37.390;2023-07-13T07:17:10;4.65;;;1.55;;
72601;SDS011;60644;55.858;37.390;2023-07-13T07:19:36;6.57;;;1.43;;
72601;SDS011;60644;55.858;37.390;2023-07-13T07:22:01;3.93;;;1.20;;
72601;SDS011;60644;55.858;37.390;2023-07-13T07:24:27;4.13;;;1.00;;
72601;SDS011;60644;55.858;37.390;2023-07-13T07:26:53;6.17;;;1.10;;
72601;SDS011;60644;55.858;37.390;2023-07-13T07:29:18;5.43;;;1.15;;
72601;SDS011;60644;55.858;37.390;2023-07-13T07:31:50;4.97;;;1.27;;
72601;SDS011;60644;55.858;37.390;2023-07-13T07:34:16;4.28;;;1.20;;
72601;SDS011;60644;55.858;37.390;2023-07-13T07:36:42;4.97;;;1.50;;
72601;SDS011;60644;55.858;37.390;2023-07-13T07:39:07;4.47;;;1.37;;
72601;SDS011;60644;55.858;37.390;2023-07-13T07:41:33;4.60;;;1.05;;
72601;SDS011;60644;55.858;37.390;2023-07-13T07:43:59;8.43;;;1.60;;
72601;SDS011;60644;55.858;37.390;2023-07-13T07:46:32;5.70;;;1.50;;
72601;SDS011;60644;55.858;37.390;2023-07-13T07:48:57;5.90;;;1.70;;
72601;SDS011;60644;55.858;37.390;2023-07-13T07:51:23;5.43;;;1.45;;
72601;SDS011;60644;55.858;37.390;2023-07-13T07:53:49;5.77;;;1.70;;
72601;SDS011;60644;55.858;37.390;2023-07-13T07:56:14;6.47;;;1.50;;
72601;SDS011;60644;55.858;37.390;2023-07-13T07:58:41;4.85;;;1.50;;
72601;SDS011;60644;55.858;37.390;2023-07-13T08:01:07;5.03;;;1.47;;
72601;SDS011;60644;55.858;37.390;2023-07-13T08:03:33;6.40;;;1.80;;
72601;SDS011;60644;55.858;37.390;2023-07-13T08:05:59;4.90;;;1.50;;
72601;SDS011;60644;55.858;37.390;2023-07-13T08:08:27;4.70;;;1.43;;
72601;SDS011;60644;55.858;37.390;2023-07-13T08:13:46;5.03;;;1.40;;
72601;SDS011;60644;55.858;37.390;2023-07-13T08:16:12;5.83;;;1.43;;
72601;SDS011;60644;55.858;37.390;2023-07-13T08:18:38;4.22;;;1.15;;
72601;SDS011;60644;55.858;37.390;2023-07-13T08:21:07;5.10;;;1.40;;
72601;SDS011;60644;55.858;37.390;2023-07-13T08:23:33;4.25;;;1.42;;
72601;SDS011;60644;55.858;37.390;2023-07-13T08:25:59;5.77;;;1.50;;
72601;SDS011;60644;55.858;37.390;2023-07-13T08:28:27;5.22;;;1.27;;
72601;SDS011;60644;55.858;37.390;2023-07-13T08:30:53;3.97;;;1.10;;
72601;SDS011;60644;55.858;37.390;2023-07-13T08:33:18;6.53;;;1.30;;
72601;SDS011;60644;55.858;37.390;2023-07-13T08:35:48;6.10;;;1.17;;
72601;SDS011;60644;55.858;37.390;2023-07-13T08:38:14;5.65;;;1.67;;
72601;SDS011;60644;55.858;37.390;2023-07-13T08:40:40;5.18;;;1.70;;
72601;SDS011;60644;55.858;37.390;2023-07-13T08:43:07;4.90;;;1.10;;
72601;SDS011;60644;55.858;37.390;2023-07-13T08:50:52;6.30;;;1.40;;
72601;SDS011;60644;55.858;37.390;2023-07-13T08:53:21;6.05;;;2.15;;
72601;SDS011;60644;55.858;37.390;2023-07-13T08:55:48;6.43;;;1.50;;
72601;SDS011;60644;55.858;37.390;2023-07-13T08:58:16;6.03;;;1.50;;
72601;SDS011;60644;55.858;37.390;2023-07-13T09:03:16;7.78;;;1.83;;
72601;SDS011;60644;55.858;37.390;2023-07-13T09:05:47;5.65;;;1.45;;
72601;SDS011;60644;55.858;37.390;2023-07-13T09:10:58;4.90;;;1.30;;
72601;SDS011;60644;55.858;37.390;2023-07-13T09:13:27;5.10;;;1.50;;
72601;SDS011;60644;55.858;37.390;2023-07-13T09:15:55;6.00;;;1.60;;
72601;SDS011;60644;55.858;37.390;2023-07-13T09:18:31;4.87;;;1.60;;
72601;SDS011;60644;55.858;37.390;2023-07-13T09:21:00;6.13;;;1.58;;
72601;SDS011;60644;55.858;37.390;2023-07-13T09:23:28;6.93;;;1.70;;
72601;SDS011;60644;55.858;37.390;2023-07-13T09:26:01;6.93;;;1.73;;
72601;SDS011;60644;55.858;37.390;2023-07-13T09:28:29;7.43;;;1.80;;
72601;SDS011;60644;55.858;37.390;2023-07-13T09:31:03;4.97;;;1.80;;
72601;SDS011;60644;55.858;37.390;2023-07-13T09:33:30;4.85;;;1.50;;
72601;SDS011;60644;55.858;37.390;2023-07-13T09:35:59;4.82;;;1.58;;
72601;SDS011;60644;55.858;37.390;2023-07-13T09:38:26;5.15;;;1.63;;
72601;SDS011;60644;55.858;37.390;2023-07-13T09:43:24;5.50;;;1.87;;
72601;SDS011;60644;55.858;37.390;2023-07-13T09:45:49;5.85;;;1.98;;
72601;SDS011;60644;55.858;37.390;2023-07-13T09:48:16;6.10;;;1.87;;
72601;SDS011;60644;55.858;37.390;2023-07-13T09:50:42;5.25;;;1.70;;
72601;SDS011;60644;55.858;37.390;2023-07-13T09:53:12;6.93;;;2.10;;
72601;SDS011;60644;55.858;37.390;2023-07-13T09:55:38;5.35;;;1.90;;
72601;SDS011;60644;55.858;37.390;2023-07-13T09:58:08;6.57;;;2.00;;
72601;SDS011;60644;55.858;37.390;2023-07-13T10:00:36;6.32;;;2.00;;
72601;SDS011;60644;55.858;37.390;2023-07-13T10:03:06;6.90;;;1.90;;
72601;SDS011;60644;55.858;37.390;2023-07-13T10:05:40;6.55;;;2.40;;
72601;SDS011;60644;55.858;37.390;2023-07-13T10:08:15;6.00;;;2.13;;
72601;SDS011;60644;55.858;37.390;2023-07-13T10:10:41;6.75;;;2.00;;
72601;SDS011;60644;55.858;37.390;2023-07-13T10:13:19;7.82;;;2.40;;
72601;SDS011;60644;55.858;37.390;2023-07-13T10:15:47;9.23;;;2.20;;
72601;SDS011;60644;55.858;37.390;2023-07-13T10:18:15;6.20;;;2.20;;
72601;SDS011;60644;55.858;37.390;2023-07-13T10:20:41;6.10;;;1.90;;
72601;SDS011;60644;55.858;37.390;2023-07-13T10:23:10;6.43;;;1.70;;
72601;SDS011;60644;55.858;37.390;2023-07-13T10:25:41;6.00;;;1.77;;
72601;SDS011;60644;55.858;37.390;2023-07-13T10:30:45;5.65;;;2.03;;
72601;SDS011;60644;55.858;37.390;2023-07-13T10:33:12;6.40;;;1.70;;
72601;SDS011;60644;55.858;37.390;2023-07-13T10:35:39;6.55;;;1.67;;
72601;SDS011;60644;55.858;37.390;2023-07-13T10:38:07;6.47;;;1.80;;
72601;SDS011;60644;55.858;37.390;2023-07-13T10:43:04;6.32;;;1.98;;
72601;SDS011;60644;55.858;37.390;2023-07-13T10:45:35;6.53;;;1.60;;
72601;SDS011;60644;55.858;37.390;2023-07-13T10:48:02;5.45;;;1.60;;
72601;SDS011;60644;55.858;37.390;2023-07-13T10:50:29;7.23;;;1.83;;
72601;SDS011;60644;55.858;37.390;2023-07-13T10:53:02;5.57;;;1.40;;
72601;SDS011;60644;55.858;37.390;2023-07-13T11:00:42;7.45;;;2.00;;
72601;SDS011;60644;55.858;37.390;2023-07-13T11:03:11;8.70;;;2.07;;
72601;SDS011;60644;55.858;37.390;2023-07-13T11:05:38;6.80;;;1.70;;
72601;SDS011;60644;55.858;37.390;2023-07-13T11:10:47;8.30;;;1.67;;
72601;SDS011;60644;55.858;37.390;2023-07-13T11:15:58;6.90;;;1.80;;
72601;SDS011;60644;55.858;37.390;2023-07-13T11:18:24;6.88;;;2.13;;
72601;SDS011;60644;55.858;37.390;2023-07-13T11:20:50;5.97;;;1.90;;
72601;SDS011;60644;55.858;37.390;2023-07-13T11:23:20;5.03;;;1.53;;
72601;SDS011;60644;55.858;37.390;2023-07-13T11:25:46;5.50;;;1.95;;
72601;SDS011;60644;55.858;37.390;2023-07-13T11:30:39;5.60;;;1.63;;
72601;SDS011;60644;55.858;37.390;2023-07-13T11:38:23;6.22;;;1.88;;
72601;SDS011;60644;55.858;37.390;2023-07-13T11:40:53;7.53;;;2.05;;
72601;SDS011;60644;55.858;37.390;2023-07-13T11:43:19;5.37;;;2.13;;
72601;SDS011;60644;55.858;37.390;2023-07-13T11:45:49;6.38;;;2.08;;
72601;SDS011;60644;55.858;37.390;2023-07-13T11:48:17;5.88;;;2.17;;
72601;SDS011;60644;55.858;37.390;2023-07-13T11:50:43;5.88;;;2.15;;
72601;SDS011;60644;55.858;37.390;2023-07-13T11:53:14;5.43;;;2.25;;
72601;SDS011;60644;55.858;37.390;2023-07-13T11:55:40;6.07;;;1.97;;
72601;SDS011;60644;55.858;37.390;2023-07-13T11:58:07;7.25;;;2.45;;
72601;SDS011;60644;55.858;37.390;2023-07-13T12:00:34;6.87;;;2.30;;
72601;SDS011;60644;55.858;37.390;2023-07-13T12:03:01;6.13;;;2.10;;
72601;SDS011;60644;55.858;37.390;2023-07-13T12:05:27;5.78;;;1.88;;
72601;SDS011;60644;55.858;37.390;2023-07-13T12:07:53;5.55;;;2.00;;
72601;SDS011;60644;55.858;37.390;2023-07-13T12:10:23;9.60;;;2.17;;
72601;SDS011;60644;55.858;37.390;2023-07-13T12:12:53;4.93;;;1.75;;
72601;SDS011;60644;55.858;37.390;2023-07-13T12:15:21;6.80;;;2.38;;
72601;SDS011;60644;55.858;37.390;2023-07-13T12:17:47;6.97;;;2.03;;
72601;SDS011;60644;55.858;37.390;2023-07-13T12:20:20;6.97;;;2.57;;
72601;SDS011;60644;55.858;37.390;2023-07-13T12:22:47;7.43;;;2.30;;
72601;SDS011;60644;55.858;37.390;2023-07-13T12:25:12;5.35;;;2.00;;
72601;SDS011;60644;55.858;37.390;2023-07-13T12:27:39;5.88;;;1.90;;
72601;SDS011;60644;55.858;37.390;2023-07-13T12:30:06;7.60;;;2.67;;
72601;SDS011;60644;55.858;37.390;2023-07-13T12:32:55;6.82;;;2.58;;
72601;SDS011;60644;55.858;37.390;2023-07-13T12:35:21;7.88;;;2.17;;
72601;SDS011;60644;55.858;37.390;2023-07-13T12:37:46;7.00;;;2.10;;
72601;SDS011;60644;55.858;37.390;2023-07-13T12:40:13;7.75;;;2.72;;
72601;SDS011;60644;55.858;37.390;2023-07-13T12:42:39;5.10;;;1.70;;
72601;SDS011;60644;55.858;37.390;2023-07-13T12:47:50;5.95;;;1.90;;
72601;SDS011;60644;55.858;37.390;2023-07-13T12:50:20;7.35;;;2.30;;
72601;SDS011;60644;55.858;37.390;2023-07-13T12:52:56;6.72;;;1.98;;
72601;SDS011;60644;55.858;37.390;2023-07-13T12:55:24;5.43;;;1.73;;
72601;SDS011;60644;55.858;37.390;2023-07-13T12:57:51;6.85;;;2.40;;
72601;SDS011;60644;55.858;37.390;2023-07-13T13:02:45;5.38;;;2.08;;
72601;SDS011;60644;55.858;37.390;2023-07-13T13:05:14;7.30;;;2.47;;
72601;SDS011;60644;55.858;37.390;2023-07-13T13:07:40;6.83;;;1.67;;
72601;SDS011;60644;55.858;37.390;2023-07-13T13:10:15;7.10;;;1.95;;
72601;SDS011;60644;55.858;37.390;2023-07-13T13:12:41;7.15;;;1.55;;
72601;SDS011;60644;55.858;37.390;2023-07-13T13:15:09;6.27;;;1.97;;
72601;SDS011;60644;55.858;37.390;2023-07-13T13:17:36;5.05;;;1.95;;
72601;SDS011;60644;55.858;37.390;2023-07-13T13:20:04;6.18;;;1.67;;
72601;SDS011;60644;55.858;37.390;2023-07-13T13:22:31;5.60;;;1.80;;
72601;SDS011;60644;55.858;37.390;2023-07-13T13:24:57;5.30;;;2.00;;
72601;SDS011;60644;55.858;37.390;2023-07-13T13:27:23;4.97;;;1.80;;
72601;SDS011;60644;55.858;37.390;2023-07-13T13:29:49;6.53;;;1.90;;
72601;SDS011;60644;55.858;37.390;2023-07-13T13:32:17;5.93;;;1.85;;
72601;SDS011;60644;55.858;37.390;2023-07-13T13:34:44;6.70;;;1.80;;
72601;SDS011;60644;55.858;37.390;2023-07-13T13:37:20;5.43;;;1.50;;
72601;SDS011;60644;55.858;37.390;2023-07-13T13:39:47;5.35;;;1.60;;
72601;SDS011;60644;55.858;37.390;2023-07-13T13:42:12;7.13;;;1.85;;
72601;SDS011;60644;55.858;37.390;2023-07-13T13:44:39;5.93;;;2.00;;
72601;SDS011;60644;55.858;37.390;2023-07-13T13:47:07;5.30;;;1.58;;
72601;SDS011;60644;55.858;37.390;2023-07-13T13:49:42;7.43;;;1.60;;
72601;SDS011;60644;55.858;37.390;2023-07-13T13:52:08;7.90;;;2.35;;
72601;SDS011;60644;55.858;37.390;2023-07-13T13:54:34;5.63;;;1.60;;
72601;SDS011;60644;55.858;37.390;2023-07-13T13:57:00;5.90;;;1.52;;
72601;SDS011;60644;55.858;37.390;2023-07-13T13:59:26;8.87;;;1.93;;
72601;SDS011;60644;55.858;37.390;2023-07-13T14:01:51;6.20;;;2.00;;
72601;SDS011;60644;55.858;37.390;2023-07-13T14:04:18;5.40;;;1.97;;
72601;SDS011;60644;55.858;37.390;2023-07-13T14:06:44;5.18;;;1.70;;
72601;SDS011;60644;55.858;37.390;2023-07-13T14:09:14;6.28;;;1.98;;
72601;SDS011;60644;55.858;37.390;2023-07-13T14:11:40;6.60;;;1.83;;
72601;SDS011;60644;55.858;37.390;2023-07-13T14:14:19;5.65;;;2.53;;
72601;SDS011;60644;55.858;37.390;2023-07-13T14:16:46;6.85;;;2.05;;
72601;SDS011;60644;55.858;37.390;2023-07-13T14:19:18;6.30;;;2.05;;
72601;SDS011;60644;55.858;37.390;2023-07-13T14:21:43;6.13;;;2.10;;
72601;SDS011;60644;55.858;37.390;2023-07-13T14:24:10;5.53;;;1.80;;
72601;SDS011;60644;55.858;37.390;2023-07-13T14:26:40;7.63;;;2.00;;
72601;SDS011;60644;55.858;37.390;2023-07-13T14:29:12;5.53;;;1.70;;
72601;SDS011;60644;55.858;37.390;2023-07-13T14:31:39;5.13;;;1.60;;
72601;SDS011;60644;55.858;37.390;2023-07-13T14:34:11;6.07;;;1.75;;
72601;SDS011;60644;55.858;37.390;2023-07-13T14:36:39;5.77;;;1.60;;
72601;SDS011;60644;55.858;37.390;2023-07-13T14:39:16;6.22;;;1.73;;
72601;SDS011;60644;55.858;37.390;2023-07-13T14:41:43;6.22;;;1.98;;
72601;SDS011;60644;55.858;37.390;2023-07-13T14:44:12;6.38;;;1.75;;
72601;SDS011;60644;55.858;37.390;2023-07-13T14:46:38;5.35;;;1.60;;
72601;SDS011;60644;55.858;37.390;2023-07-13T14:49:05;6.30;;;1.80;;
72601;SDS011;60644;55.858;37.390;2023-07-13T14:51:31;6.25;;;2.08;;
72601;SDS011;60644;55.858;37.390;2023-07-13T14:53:58;5.50;;;1.53;;
72601;SDS011;60644;55.858;37.390;2023-07-13T14:56:24;5.43;;;1.42;;
72601;SDS011;60644;55.858;37.390;2023-07-13T14:58:50;7.70;;;1.52;;
72601;SDS011;60644;55.858;37.390;2023-07-13T15:01:17;6.53;;;1.63;;
72601;SDS011;60644;55.858;37.390;2023-07-13T15:03:43;8.03;;;1.70;;
72601;SDS011;60644;55.858;37.390;2023-07-13T15:06:10;6.60;;;1.75;;
72601;SDS011;60644;55.858;37.390;2023-07-13T15:08:37;6.22;;;1.67;;
72601;SDS011;60644;55.858;37.390;2023-07-13T15:11:03;5.32;;;1.50;;
72601;SDS011;60644;55.858;37.390;2023-07-13T15:13:30;5.22;;;1.50;;
72601;SDS011;60644;55.858;37.390;2023-07-13T15:15:56;6.27;;;1.57;;
72601;SDS011;60644;55.858;37.390;2023-07-13T15:18:22;4.45;;;1.60;;
72601;SDS011;60644;55.858;37.390;2023-07-13T15:20:49;4.85;;;1.70;;